Time;durP1;ratioP1;P1;durP2;ratioP2;P2;SDS_P1;SDS_P2;PMS_P1;PMS_P2;Temp;Humidity;BMP_temperature;BMP_pressure;BME280_temperature;BME280_humidity;BME280_pressure;Samples;Min_cycle;Max_cycle;Signal;HPM_P1;HPM_P2
2022/01/29 00:02:15;;;;;;;4.60;3.37;;;;;;;3.54;76.93;96968.22;4368283;32;20306;-64
2022/01/29 00:04:41;;;;;;;4.17;3.50;;;;;;;3.50;76.80;96972.28;4369880;32;20189;-63
2022/01/29 00:07:09;;;;;;;4.23;3.83;;;;;;;3.56;76.63;96974.06;4358308;32;20296;-64
2022/01/29 00:09:35;;;;;;;3.77;3.47;;;;;;;3.44;77.41;96960.00;4380900;32;20208;-64
2022/01/29 00:12:02;;;;;;;5.33;3.47;;;;;;;3.57;76.87;96952.06;4377542;32;20295;-64
2022/01/29 00:14:29;;;;;;;4.27;3.70;;;;;;;3.70;76.01;96945.97;4347875;32;20200;-64
2022/01/29 00:16:56;;;;;;;3.87;3.47;;;;;;;3.39;77.09;96944.87;4357348;32;20284;-64
2022/01/29 00:19:23;;;;;;;4.30;3.90;;;;;;;3.39;76.85;96931.75;4343813;32;20293;-64
2022/01/29 00:21:51;;;;;;;4.70;4.30;;;;;;;3.31;77.30;96937.25;4359471;32;20295;-64
2022/01/29 00:24:18;;;;;;;4.13;3.70;;;;;;;3.31;77.55;96932.00;4353270;32;20296;-64
2022/01/29 00:26:46;;;;;;;6.10;4.50;;;;;;;3.38;77.02;96926.72;4369271;32;20284;-64
2022/01/29 00:29:21;;;;;;;4.27;3.97;;;;;;;3.35;76.90;96924.50;4376087;32;20284;-63
2022/01/29 00:31:47;;;;;;;6.50;4.50;;;;;;;3.26;77.64;96921.31;4359925;32;20298;-63
2022/01/29 00:34:13;;;;;;;4.90;3.97;;;;;;;3.33;77.54;96922.09;4358443;32;20292;-63
2022/01/29 00:36:40;;;;;;;5.37;4.17;;;;;;;3.29;77.29;96913.06;4349850;32;20226;-63
2022/01/29 00:39:05;;;;;;;6.93;4.00;;;;;;;3.37;77.07;96910.19;4371939;32;20549;-64
2022/01/29 00:41:31;;;;;;;4.30;3.90;;;;;;;3.42;76.97;96905.13;4355817;32;20281;-64
2022/01/29 00:43:58;;;;;;;4.97;3.80;;;;;;;3.33;76.98;96908.97;4346133;32;20213;-64
2022/01/29 00:46:27;;;;;;;5.20;3.77;;;;;;;3.28;77.22;96900.94;4339747;32;20208;-64
2022/01/29 00:48:53;;;;;;;5.37;4.27;;;;;;;3.43;77.18;96888.38;4335639;32;20288;-64
2022/01/29 00:51:22;;;;;;;4.50;4.10;;;;;;;3.35;77.30;96893.84;4338672;32;20305;-64
2022/01/29 00:53:48;;;;;;;6.93;4.33;;;;;;;3.34;77.52;96878.31;4351408;32;20310;-64
2022/01/29 00:56:26;;;;;;;5.93;4.47;;;;;;;3.35;77.79;96877.28;4358474;32;20334;-64
2022/01/29 00:58:52;;;;;;;6.80;4.40;;;;;;;3.45;77.30;96891.59;4363215;32;20284;-64
2022/01/29 01:01:24;;;;;;;5.30;4.30;;;;;;;3.20;77.27;96901.16;4343368;32;20339;-64
2022/01/29 01:03:50;;;;;;;5.40;4.67;;;;;;;3.23;77.06;96885.03;4360880;32;20358;-64
2022/01/29 01:06:25;;;;;;;4.97;4.27;;;;;;;3.39;76.78;96889.78;4370566;32;20270;-64
2022/01/29 01:08:50;;;;;;;4.63;4.23;;;;;;;3.33;76.99;96888.00;4356208;32;20280;-64
2022/01/29 01:11:26;;;;;;;4.70;4.07;;;;;;;3.41;76.76;96885.16;4366789;32;20403;-64
2022/01/29 01:13:51;;;;;;;6.20;4.23;;;;;;;3.40;76.87;96880.09;4373248;32;20183;-64
2022/01/29 01:16:22;;;;;;;5.10;4.30;;;;;;;3.48;76.40;96869.37;4366105;32;20350;-64
2022/01/29 01:18:50;;;;;;;7.40;5.07;;;;;;;3.24;77.37;96868.28;4336744;32;20193;-64
2022/01/29 01:21:24;;;;;;;4.90;3.93;;;;;;;3.45;76.84;96865.34;4313232;32;20285;-64
2022/01/29 01:23:52;;;;;;;5.80;4.87;;;;;;;3.44;76.61;96861.13;4340436;32;20324;-63
2022/01/29 01:26:21;;;;;;;5.13;4.20;;;;;;;3.49;76.19;96852.63;4344729;32;20273;-64
2022/01/29 01:28:48;;;;;;;4.23;3.90;;;;;;;3.62;75.52;96851.75;4357847;32;20278;-64
2022/01/29 01:31:22;;;;;;;4.93;4.43;;;;;;;3.48;75.98;96850.22;4342167;32;20282;-64
2022/01/29 01:33:52;;;;;;;5.67;4.00;;;;;;;3.49;76.45;96859.69;4340575;32;20272;-64
2022/01/29 01:36:25;;;;;;;5.27;4.00;;;;;;;3.70;76.09;96856.75;4335586;32;20277;-64
2022/01/29 01:38:59;;;;;;;5.40;3.97;;;;;;;3.58;75.73;96847.94;4341979;32;20304;-64
2022/01/29 01:41:26;;;;;;;6.13;4.10;;;;;;;3.61;75.83;96839.63;4357775;32;20285;-64
2022/01/29 01:44:00;;;;;;;6.07;4.40;;;;;;;3.44;76.24;96827.03;4344161;32;20299;-64
2022/01/29 01:46:28;;;;;;;4.13;3.73;;;;;;;3.67;76.08;96825.69;4361798;32;20272;-64
2022/01/29 01:48:54;;;;;;;4.60;4.17;;;;;;;3.68;75.79;96816.78;4343227;32;20285;-63
2022/01/29 01:51:23;;;;;;;6.13;3.90;;;;;;;3.57;75.68;96818.25;4357842;32;20336;-64
2022/01/29 01:53:50;;;;;;;5.20;4.27;;;;;;;3.66;75.57;96813.56;4327515;32;20277;-64
2022/01/29 01:56:23;;;;;;;6.07;4.10;;;;;;;3.64;75.47;96810.34;4330085;32;20300;-64
2022/01/29 01:58:49;;;;;;;5.37;4.37;;;;;;;3.42;76.16;96802.03;4348975;32;20344;-65
2022/01/29 02:01:21;;;;;;;4.60;4.20;;;;;;;3.20;76.61;96805.97;4338145;32;20281;-64
2022/01/29 02:03:48;;;;;;;4.60;4.10;;;;;;;3.21;77.22;96800.53;4340231;32;20300;-64
2022/01/29 02:06:23;;;;;;;6.53;4.10;;;;;;;3.42;76.31;96789.72;4355580;32;20319;-64
2022/01/29 02:08:58;;;;;;;5.20;4.20;;;;;;;3.58;75.63;96785.75;4339661;32;20289;-64
2022/01/29 02:11:28;;;;;;;4.57;4.17;;;;;;;3.40;76.02;96781.25;4317444;32;20375;-64
2022/01/29 02:13:58;;;;;;;6.13;4.30;;;;;;;3.32;76.38;96786.75;4350376;32;20331;-64
2022/01/29 02:16:27;;;;;;;9.03;5.17;;;;;;;3.43;76.00;96782.66;4321701;32;20297;-64
2022/01/29 02:18:53;;;;;;;4.20;3.90;;;;;;;3.33;76.20;96788.34;4311267;32;20296;-64
2022/01/29 02:21:29;;;;;;;4.27;3.87;;;;;;;3.44;75.76;96782.44;4359889;32;20352;-64
2022/01/29 02:23:55;;;;;;;4.83;4.43;;;;;;;3.39;75.90;96776.22;4365788;32;20230;-65
2022/01/29 02:26:31;;;;;;;4.83;3.93;;;;;;;3.36;76.45;96772.19;4364128;32;20300;-64
2022/01/29 02:28:56;;;;;;;5.40;4.27;;;;;;;3.44;75.86;96761.47;4370507;32;20208;-64
2022/01/29 02:31:24;;;;;;;3.77;3.50;;;;;;;3.28;76.65;96755.94;4368506;32;20301;-64
2022/01/29 02:33:50;;;;;;;5.33;3.90;;;;;;;3.39;76.58;96750.78;4369368;32;20339;-65
2022/01/29 02:36:38;;;;;;;5.07;4.17;;;;;;;3.38;76.03;96736.06;4378631;32;20280;-64
2022/01/29 02:39:05;;;;;;;4.37;3.97;;;;;;;3.40;75.97;96741.09;4377458;32;20192;-65
2022/01/29 02:41:34;;;;;;;3.93;3.47;;;;;;;3.47;75.55;96746.31;4365541;32;20333;-64
2022/01/29 02:44:04;;;;;;;4.27;3.90;;;;;;;3.25;76.33;96744.03;4367333;32;20325;-64
2022/01/29 02:46:48;;;;;;;4.40;3.87;;;;;;;3.55;75.61;96736.34;4361102;32;20285;-65
2022/01/29 02:49:18;;;;;;;4.13;3.83;;;;;;;3.32;76.69;96736.94;4368813;32;20323;-65
2022/01/29 02:51:48;;;;;;;6.03;4.00;;;;;;;3.38;76.36;96730.81;4363066;32;20304;-65
2022/01/29 02:54:15;;;;;;;5.17;4.10;;;;;;;3.49;75.93;96729.34;4352636;32;20327;-65
2022/01/29 02:56:41;;;;;;;4.17;3.87;;;;;;;3.42;76.09;96739.87;4369992;32;20324;-64
2022/01/29 02:59:08;;;;;;;6.57;4.70;;;;;;;3.42;75.63;96737.25;4370091;32;20292;-65
2022/01/29 03:01:34;;;;;;;4.33;3.77;;;;;;;3.42;75.78;96733.84;4356331;32;20323;-64
2022/01/29 03:04:01;;;;;;;4.50;3.83;;;;;;;3.37;76.05;96741.53;4364377;32;20320;-65
2022/01/29 03:06:32;;;;;;;4.43;4.03;;;;;;;3.53;75.75;96745.47;4356446;32;20293;-64
2022/01/29 03:08:58;;;;;;;8.13;4.00;;;;;;;3.53;75.29;96740.22;4322838;32;20292;-64
2022/01/29 03:11:34;;;;;;;3.67;3.37;;;;;;;3.37;75.52;96741.53;4355470;32;20289;-64
2022/01/29 03:14:01;;;;;;;4.37;3.83;;;;;;;3.37;75.69;96734.47;4366293;32;20207;-64
2022/01/29 03:16:27;;;;;;;6.13;4.23;;;;;;;3.34;75.57;96729.63;4352472;32;20284;-65
2022/01/29 03:18:53;;;;;;;4.60;4.20;;;;;;;3.43;75.57;96714.47;4356642;32;20319;-64
2022/01/29 03:21:30;;;;;;;11.57;6.90;;;;;;;3.19;76.34;96702.13;4352928;32;20281;-64
2022/01/29 03:23:57;;;;;;;23.77;10.43;;;;;;;3.38;75.93;96701.19;4356413;32;20196;-64
2022/01/29 03:26:23;;;;;;;19.57;9.37;;;;;;;3.32;75.59;96699.44;4366574;32;20295;-64
2022/01/29 03:28:51;;;;;;;11.00;6.77;;;;;;;3.26;75.99;96692.41;4364684;32;20307;-65
2022/01/29 03:31:26;;;;;;;15.03;6.60;;;;;;;3.22;76.08;96693.84;4365871;32;20388;-64
2022/01/29 03:33:52;;;;;;;7.13;5.43;;;;;;;3.18;76.14;96698.69;4368431;32;20283;-65
2022/01/29 03:36:26;;;;;;;6.87;5.07;;;;;;;3.31;75.70;96703.06;4355614;32;20364;-64
2022/01/29 03:38:54;;;;;;;5.60;4.97;;;;;;;3.38;74.89;96704.59;4380393;32;20332;-65
2022/01/29 03:41:20;;;;;;;6.13;4.17;;;;;;;3.36;75.05;96692.72;4376675;32;20287;-64
2022/01/29 03:43:48;;;;;;;4.90;4.13;;;;;;;3.23;75.63;96691.00;4318649;32;20290;-65
2022/01/29 03:46:21;;;;;;;4.00;3.40;;;;;;;3.25;75.87;96691.59;4370626;32;20243;-64
2022/01/29 03:48:47;;;;;;;4.80;3.70;;;;;;;3.23;75.96;96693.63;4346232;32;20304;-64
2022/01/29 03:51:25;;;;;;;5.07;3.80;;;;;;;3.15;76.57;96686.00;4372031;32;20296;-65
2022/01/29 03:53:50;;;;;;;7.40;3.50;;;;;;;3.29;75.97;96682.28;4337800;32;20367;-64
2022/01/29 03:56:32;;;;;;;7.63;3.60;;;;;;;3.14;75.61;96678.34;4341451;32;20289;-64
2022/01/29 03:59:02;;;;;;;3.80;3.37;;;;;;;3.07;76.31;96679.22;4368614;32;20201;-65
2022/01/29 04:01:29;;;;;;;4.07;3.77;;;;;;;3.07;76.95;96679.22;4360423;32;20314;-64
2022/01/29 04:03:54;;;;;;;4.80;3.47;;;;;;;3.32;75.71;96676.63;4339053;32;20300;-65
2022/01/29 04:06:38;;;;;;;5.50;4.40;;;;;;;3.22;76.37;96678.91;4354195;32;20348;-65
2022/01/29 04:09:09;;;;;;;4.20;3.83;;;;;;;3.09;76.65;96676.38;4334697;32;20198;-64
2022/01/29 04:11:37;;;;;;;5.30;4.00;;;;;;;3.08;76.72;96672.16;4354363;32;20288;-65
2022/01/29 04:14:13;;;;;;;4.03;3.73;;;;;;;3.16;76.58;96674.50;4336774;32;22962;-65
2022/01/29 04:16:41;;;;;;;3.63;3.30;;;;;;;3.27;76.40;96665.97;4348845;32;20343;-65
2022/01/29 04:19:09;;;;;;;4.90;4.20;;;;;;;3.13;76.54;96646.09;4367923;32;20303;-64
2022/01/29 04:21:36;;;;;;;7.20;3.80;;;;;;;3.07;76.99;96658.25;4361464;32;20300;-65
2022/01/29 04:24:01;;;;;;;4.03;3.60;;;;;;;3.10;77.31;96647.34;4332741;32;20300;-64
2022/01/29 04:26:33;;;;;;;4.73;3.50;;;;;;;3.13;77.16;96640.84;4362511;32;20284;-64
2022/01/29 04:29:00;;;;;;;5.73;3.93;;;;;;;3.18;77.25;96643.62;4368154;32;20226;-64
2022/01/29 04:31:35;;;;;;;3.63;3.33;;;;;;;2.91;77.62;96657.97;4348224;32;20287;-64
2022/01/29 04:34:03;;;;;;;4.37;3.90;;;;;;;2.94;77.63;96657.53;4367902;32;20306;-63
2022/01/29 04:36:29;;;;;;;5.40;3.90;;;;;;;3.22;76.91;96644.81;4337972;32;20282;-64
2022/01/29 04:38:55;;;;;;;4.20;3.90;;;;;;;3.08;77.20;96644.12;4377811;32;20371;-65
2022/01/29 04:41:24;;;;;;;4.70;4.30;;;;;;;2.96;77.78;96639.78;4375864;32;20274;-65
2022/01/29 04:43:49;;;;;;;4.40;4.10;;;;;;;3.07;77.60;96636.47;4383827;32;20222;-64
2022/01/29 04:46:38;;;;;;;5.63;3.50;;;;;;;2.99;77.51;96634.09;4349271;32;20288;-65
2022/01/29 04:49:05;;;;;;;7.07;4.23;;;;;;;3.12;77.62;96644.47;4357252;32;20181;-64
2022/01/29 04:51:30;;;;;;;4.33;3.67;;;;;;;3.13;77.21;96646.09;4375706;32;20312;-65
2022/01/29 04:53:58;;;;;;;3.67;3.37;;;;;;;3.15;77.51;96641.44;4358617;32;20276;-64
2022/01/29 04:56:29;;;;;;;4.70;4.30;;;;;;;3.16;77.74;96650.91;4362990;32;20211;-64
2022/01/29 04:58:56;;;;;;;3.87;3.67;;;;;;;3.26;77.17;96646.00;4349229;32;20366;-65
2022/01/29 05:01:39;;;;;;;5.30;3.60;;;;;;;3.19;76.86;96641.81;4363577;32;20281;-64
2022/01/29 05:04:05;;;;;;;4.37;4.00;;;;;;;3.22;77.34;96634.34;4341031;32;20289;-64
2022/01/29 05:06:31;;;;;;;4.03;3.27;;;;;;;3.14;77.66;96631.16;4371197;32;20353;-64
2022/01/29 05:08:57;;;;;;;5.73;3.70;;;;;;;3.27;77.25;96629.25;4355117;32;20200;-64
2022/01/29 05:11:56;;;;;;;4.10;3.80;;;;;;;3.21;77.39;96637.97;4352727;32;20276;-64
2022/01/29 05:14:34;;;;;;;5.03;4.17;;;;;;;3.35;76.71;96634.22;4357643;32;20176;-64
2022/01/29 05:28:00;;;;;;;6.27;4.10;;;;;;;3.15;77.27;96638.81;4294666;33;20356;-65
2022/01/29 05:30:25;;;;;;;4.00;3.73;;;;;;;3.19;77.25;96639.19;4306759;32;20290;-64
2022/01/29 05:32:52;;;;;;;4.00;3.60;;;;;;;3.27;76.97;96631.87;4314115;32;20229;-65
2022/01/29 05:35:19;;;;;;;4.20;3.50;;;;;;;3.39;76.50;96624.91;4352259;32;20186;-65
2022/01/29 05:37:46;;;;;;;4.23;3.83;;;;;;;3.31;76.59;96622.56;4355097;32;20288;-65
2022/01/29 05:40:12;;;;;;;4.27;3.83;;;;;;;3.19;77.00;96619.03;4383716;32;20300;-64
2022/01/29 05:42:37;;;;;;;4.17;3.87;;;;;;;3.33;76.65;96620.50;4348796;32;20299;-65
2022/01/29 05:45:04;;;;;;;4.10;3.70;;;;;;;3.06;77.39;96613.91;4368359;32;20253;-65
2022/01/29 05:47:30;;;;;;;4.27;3.93;;;;;;;3.12;77.43;96605.16;4364683;32;20248;-64
2022/01/29 05:49:56;;;;;;;4.33;3.53;;;;;;;3.10;76.83;96607.22;4363917;32;20280;-64
2022/01/29 05:52:24;;;;;;;3.97;3.40;;;;;;;3.03;77.39;96614.31;4334920;32;20193;-64
2022/01/29 05:54:51;;;;;;;4.70;3.70;;;;;;;3.11;77.18;96614.06;4362425;32;20330;-65
2022/01/29 05:57:17;;;;;;;4.03;3.63;;;;;;;3.24;76.52;96606.09;4366278;32;20287;-64
2022/01/29 05:59:42;;;;;;;3.87;3.20;;;;;;;3.25;75.96;96607.69;4345969;32;20298;-64
2022/01/29 06:02:10;;;;;;;4.27;3.73;;;;;;;3.08;76.96;96611.88;4361261;32;20291;-64
2022/01/29 06:04:36;;;;;;;5.43;3.13;;;;;;;3.08;76.82;96602.19;4365015;32;20403;-64
2022/01/29 06:07:01;;;;;;;5.40;3.77;;;;;;;3.12;76.53;96603.34;4360090;32;20329;-65
2022/01/29 06:09:27;;;;;;;4.27;3.20;;;;;;;3.15;75.87;96607.38;4363994;32;20185;-64
2022/01/29 06:11:52;;;;;;;4.17;3.27;;;;;;;3.25;75.68;96606.88;4362421;32;20199;-65
2022/01/29 06:14:19;;;;;;;4.20;3.23;;;;;;;3.30;74.82;96605.25;4334523;32;20187;-64
2022/01/29 06:16:47;;;;;;;6.13;3.63;;;;;;;3.16;75.47;96602.91;4354215;32;20184;-64
2022/01/29 06:19:15;;;;;;;7.80;3.67;;;;;;;3.16;75.44;96606.34;4363700;32;20330;-64
2022/01/29 06:21:40;;;;;;;3.50;3.20;;;;;;;3.24;74.86;96595.59;4368743;32;20331;-64
2022/01/29 06:24:07;;;;;;;3.50;3.30;;;;;;;3.35;74.42;96599.31;4385221;32;20280;-64
2022/01/29 06:26:33;;;;;;;3.27;2.93;;;;;;;3.45;74.23;96608.31;4366435;32;20205;-64
2022/01/29 06:28:59;;;;;;;2.93;2.70;;;;;;;3.40;74.21;96613.41;4375642;32;20276;-64
2022/01/29 06:31:25;;;;;;;3.47;3.17;;;;;;;3.43;73.56;96607.72;4353689;32;20287;-64
2022/01/29 06:33:52;;;;;;;3.53;3.20;;;;;;;3.38;73.99;96599.69;4355952;32;20327;-64
2022/01/29 06:36:32;;;;;;;4.00;3.00;;;;;;;3.35;73.99;96608.00;4350707;32;20177;-64
2022/01/29 06:38:58;;;;;;;2.90;2.70;;;;;;;3.40;73.63;96602.09;4353532;32;20277;-64
2022/01/29 06:41:29;;;;;;;2.80;2.60;;;;;;;3.42;72.72;96603.50;4348375;32;20364;-64
2022/01/29 06:43:57;;;;;;;3.80;2.80;;;;;;;3.48;72.25;96606.28;4377265;32;20211;-64
2022/01/29 06:46:24;;;;;;;3.67;2.50;;;;;;;3.60;71.56;96586.97;4378729;32;20323;-65
2022/01/29 06:48:50;;;;;;;3.00;2.70;;;;;;;3.46;71.21;96590.75;4373015;32;20295;-65
2022/01/29 06:51:21;;;;;;;2.60;2.40;;;;;;;3.41;71.33;96590.59;4357249;32;20285;-64
2022/01/29 06:53:48;;;;;;;2.40;2.30;;;;;;;3.58;70.45;96580.34;4352811;32;20316;-64
2022/01/29 06:56:23;;;;;;;4.27;2.40;;;;;;;3.66;69.89;96582.69;4366556;32;20276;-64
2022/01/29 06:58:48;;;;;;;3.67;2.77;;;;;;;3.61;69.21;96582.53;4345524;32;20359;-64
2022/01/29 07:01:24;;;;;;;2.57;2.37;;;;;;;3.69;69.35;96588.31;4363302;32;20276;-64
2022/01/29 07:03:53;;;;;;;2.20;2.10;;;;;;;3.70;68.96;96587.28;4369039;32;20200;-65
2022/01/29 07:06:29;;;;;;;2.23;2.10;;;;;;;3.74;68.70;96577.16;4373368;32;20304;-64
2022/01/29 07:08:54;;;;;;;3.90;1.87;;;;;;;3.73;68.42;96572.94;4355798;32;20287;-64
2022/01/29 07:11:32;;;;;;;1.97;1.80;;;;;;;3.62;68.60;96565.78;4337167;32;20277;-65
2022/01/29 07:14:03;;;;;;;2.90;1.90;;;;;;;3.60;68.50;96562.56;4355959;32;20176;-64
2022/01/29 07:16:34;;;;;;;2.47;1.77;;;;;;;3.86;67.60;96559.66;4352196;32;20270;-64
2022/01/29 07:19:00;;;;;;;1.90;1.70;;;;;;;3.90;67.01;96552.94;4347292;32;20281;-64
2022/01/29 07:21:27;;;;;;;1.67;1.57;;;;;;;3.69;67.81;96551.56;4351661;32;20296;-64
2022/01/29 07:23:52;;;;;;;1.50;1.40;;;;;;;3.98;66.77;96549.19;4353549;32;20181;-65
2022/01/29 07:26:23;;;;;;;1.43;1.33;;;;;;;4.03;66.18;96547.53;4346222;32;20273;-64
2022/01/29 07:28:48;;;;;;;2.93;1.77;;;;;;;4.06;65.98;96552.34;4348551;32;20189;-64
2022/01/29 07:31:26;;;;;;;2.77;1.60;;;;;;;3.94;65.93;96554.13;4319448;32;20289;-64
2022/01/29 07:33:51;;;;;;;1.70;1.60;;;;;;;4.16;66.00;96551.03;4363279;32;20251;-64
2022/01/29 07:36:25;;;;;;;1.53;1.37;;;;;;;4.11;65.45;96555.09;4351761;32;20280;-65
2022/01/29 07:38:51;;;;;;;1.63;1.53;;;;;;;4.10;65.06;96553.50;4352231;32;20227;-65
2022/01/29 07:41:22;;;;;;;1.50;1.20;;;;;;;4.06;64.61;96551.53;4339240;32;20277;-65
2022/01/29 07:43:47;;;;;;;1.57;1.47;;;;;;;4.11;64.70;96555.09;4360732;32;20294;-65
2022/01/29 07:46:23;;;;;;;1.50;1.40;;;;;;;4.18;64.29;96562.06;4346515;32;20290;-64
2022/01/29 07:48:49;;;;;;;3.13;1.60;;;;;;;4.24;64.46;96563.81;4370750;32;20222;-64
2022/01/29 07:51:27;;;;;;;1.80;1.70;;;;;;;4.27;63.81;96574.69;4366486;32;20292;-64
2022/01/29 07:53:53;;;;;;;2.00;1.67;;;;;;;4.24;64.13;96569.88;4359208;32;20287;-65
2022/01/29 07:56:23;;;;;;;2.67;1.00;;;;;;;4.19;64.10;96582.06;4317044;32;20286;-65
2022/01/29 07:58:51;;;;;;;2.03;1.60;;;;;;;4.25;63.65;96575.94;4320248;32;20285;-64
2022/01/29 08:01:22;;;;;;;2.50;1.90;;;;;;;4.35;64.11;96571.75;4354836;32;20281;-64
2022/01/29 08:03:50;;;;;;;1.67;1.57;;;;;;;4.35;63.35;96578.84;4363966;32;20303;-65
2022/01/29 08:06:23;;;;;;;1.67;1.57;;;;;;;4.44;63.61;96577.50;4358747;32;20327;-65
2022/01/29 08:08:52;;;;;;;1.83;1.40;;;;;;;4.43;63.12;96583.75;4369919;32;20304;-65
2022/01/29 08:11:25;;;;;;;1.63;1.53;;;;;;;4.58;62.30;96576.28;4359142;32;20293;-65
2022/01/29 08:13:52;;;;;;;1.80;1.70;;;;;;;4.47;63.12;96569.97;4332934;32;20391;-65
2022/01/29 08:16:45;;;;;;;2.10;1.43;;;;;;;4.50;62.71;96571.34;4349998;32;20299;-65
2022/01/29 08:19:10;;;;;;;2.33;1.73;;;;;;;4.58;62.98;96567.59;4328216;32;20200;-64
2022/01/29 08:21:38;;;;;;;1.87;1.70;;;;;;;4.59;62.39;96564.72;4337135;32;20281;-64
2022/01/29 08:24:06;;;;;;;2.80;1.60;;;;;;;4.62;62.88;96561.66;4355488;32;20305;-64
2022/01/29 08:26:32;;;;;;;1.70;1.60;;;;;;;4.50;63.37;96558.22;4349238;32;20332;-64
2022/01/29 08:28:59;;;;;;;5.33;1.63;;;;;;;4.63;63.33;96560.62;4356822;32;20289;-64
2022/01/29 08:31:26;;;;;;;2.73;1.60;;;;;;;4.64;62.65;96549.09;4347640;32;20277;-64
2022/01/29 08:33:51;;;;;;;3.00;1.63;;;;;;;4.56;62.70;96556.53;4342779;32;20427;-64
2022/01/29 08:36:25;;;;;;;2.70;1.60;;;;;;;4.59;63.10;96546.34;4339347;32;20289;-64
2022/01/29 08:38:53;;;;;;;1.80;1.70;;;;;;;4.75;62.58;96537.03;4345686;32;20219;-66
2022/01/29 08:41:27;;;;;;;6.60;1.87;;;;;;;4.60;63.01;96539.25;4363923;32;20356;-64
2022/01/29 08:43:55;;;;;;;3.50;1.73;;;;;;;4.78;61.92;96534.72;4347090;32;20268;-64
2022/01/29 08:46:20;;;;;;;2.77;1.67;;;;;;;4.65;61.78;96545.44;4343958;32;20284;-64
2022/01/29 08:48:47;;;;;;;4.00;1.80;;;;;;;4.59;61.80;96541.09;4334767;32;20357;-64
2022/01/29 08:51:23;;;;;;;1.67;1.27;;;;;;;4.60;62.04;96537.44;4346459;32;20207;-64
2022/01/29 08:53:48;;;;;;;1.90;1.80;;;;;;;4.68;61.75;96541.56;4370821;32;20283;-64
2022/01/29 08:56:16;;;;;;;2.10;1.70;;;;;;;4.84;60.94;96533.81;4354166;32;20277;-63
2022/01/29 08:58:42;;;;;;;3.13;1.53;;;;;;;4.94;60.50;96528.03;4345317;32;20215;-64
2022/01/29 09:01:24;;;;;;;2.63;1.40;;;;;;;4.83;60.80;96534.84;4354121;32;20292;-65
2022/01/29 09:03:51;;;;;;;3.50;1.57;;;;;;;4.94;60.37;96530.66;4354055;32;20277;-64
2022/01/29 09:06:33;;;;;;;2.53;1.60;;;;;;;4.98;60.10;96531.00;4337018;32;20292;-64
2022/01/29 09:09:03;;;;;;;1.93;1.83;;;;;;;4.94;59.53;96532.47;4323462;32;20372;-65
2022/01/29 09:11:30;;;;;;;1.50;1.40;;;;;;;5.15;59.61;96531.91;4348735;32;20281;-64
2022/01/29 09:13:57;;;;;;;2.50;1.67;;;;;;;5.28;58.49;96531.69;4346222;32;20335;-64
2022/01/29 09:16:27;;;;;;;1.40;1.30;;;;;;;5.07;59.21;96527.00;4338104;32;20331;-64
2022/01/29 09:18:54;;;;;;;1.97;1.30;;;;;;;5.20;59.21;96516.22;4360125;32;20307;-64
2022/01/29 09:24:43;;;;;;;2.27;0.97;;;;;;;5.20;59.26;96513.59;4346880;32;20336;-64
2022/01/29 09:27:09;;;;;;;1.43;1.20;;;;;;;5.24;59.00;96519.22;4358258;32;20287;-64
2022/01/29 09:29:38;;;;;;;1.20;1.10;;;;;;;5.24;57.67;96512.13;4360555;32;20292;-64
2022/01/29 09:32:32;;;;;;;1.27;1.17;;;;;;;5.13;57.56;96499.78;4330391;32;20268;-64
2022/01/29 09:35:00;;;;;;;1.90;1.03;;;;;;;5.29;57.09;96509.59;4367229;32;20295;-65
2022/01/29 09:37:26;;;;;;;1.70;1.10;;;;;;;5.37;56.39;96505.84;4357379;32;20376;-63
2022/01/29 09:39:54;;;;;;;4.50;1.07;;;;;;;5.25;56.00;96502.41;4325145;32;20339;-64
2022/01/29 09:42:20;;;;;;;1.27;0.90;;;;;;;5.36;56.49;96505.03;4360508;32;20285;-65
2022/01/29 09:44:48;;;;;;;2.60;1.00;;;;;;;5.38;55.94;96497.72;4350332;32;20288;-65
2022/01/29 09:47:16;;;;;;;2.10;1.00;;;;;;;5.37;56.11;96496.13;4336672;32;20277;-63
2022/01/29 09:49:42;;;;;;;3.23;1.67;;;;;;;5.38;54.78;96492.44;4368297;32;20289;-65
2022/01/29 09:52:08;;;;;;;1.43;0.70;;;;;;;5.33;54.68;96494.16;4370747;32;20414;-65
2022/01/29 09:54:35;;;;;;;2.93;0.93;;;;;;;5.33;54.24;96496.78;4354967;32;20293;-65
2022/01/29 09:57:00;;;;;;;0.60;0.60;;;;;;;5.40;54.03;96500.13;4351945;32;20212;-66
2022/01/29 09:59:27;;;;;;;2.10;0.80;;;;;;;5.60;53.53;96505.00;4362745;32;20292;-66
2022/01/29 10:02:15;;;;;;;6.57;1.10;;;;;;;5.62;53.12;96501.06;4350786;32;20244;-65
2022/01/29 10:04:48;;;;;;;6.50;2.30;;;;;;;5.66;52.21;96509.31;4333802;32;20278;-66
2022/01/29 10:07:17;;;;;;;3.30;0.67;;;;;;;5.72;52.66;96517.09;4369364;32;20331;-66
2022/01/29 10:09:46;;;;;;;0.70;0.60;;;;;;;5.89;51.22;96505.84;4366318;32;20280;-66
2022/01/29 10:12:31;;;;;;;0.50;0.50;;;;;;;5.91;51.40;96515.13;4361529;32;20298;-66
2022/01/29 10:15:09;;;;;;;1.63;0.80;;;;;;;6.13;50.97;96523.97;4384652;32;20281;-66
2022/01/29 10:17:54;;;;;;;0.60;0.60;;;;;;;6.00;50.30;96516.38;4351195;32;20317;-66
2022/01/29 10:20:29;;;;;;;4.37;1.37;;;;;;;5.98;50.87;96513.16;4387424;32;20280;-67
2022/01/29 10:23:00;;;;;;;0.70;0.50;;;;;;;5.96;50.30;96520.50;4334722;32;20276;-66
2022/01/29 10:25:41;;;;;;;0.70;0.50;;;;;;;6.11;49.33;96506.81;4369461;32;20324;-66
2022/01/29 10:28:34;;;;;;;1.40;0.50;;;;;;;6.26;49.04;96503.63;4343688;32;20351;-66
2022/01/29 10:31:37;;;;;;;0.50;0.50;;;;;;;6.19;48.69;96515.16;4345253;32;20301;-66
2022/01/29 10:34:20;;;;;;;3.30;0.53;;;;;;;6.26;48.55;96511.53;4385801;32;20308;-66
2022/01/29 10:37:19;;;;;;;1.77;0.60;;;;;;;6.17;49.18;96511.13;4355475;32;20313;-65
2022/01/29 10:39:54;;;;;;;0.80;0.67;;;;;;;6.25;49.33;96513.38;4336450;32;20369;-66
2022/01/29 10:42:34;;;;;;;9.83;0.70;;;;;;;6.29;49.07;96511.06;4360731;32;20284;-66
2022/01/29 10:45:03;;;;;;;0.50;0.30;;;;;;;6.48;48.62;96501.94;4294437;32;20281;-65
2022/01/29 10:47:53;;;;;;;1.17;0.60;;;;;;;6.47;49.04;96506.41;4315654;32;20346;-65
2022/01/29 10:50:21;;;;;;;0.53;0.50;;;;;;;6.46;47.68;96496.88;4360626;32;20276;-65
2022/01/29 10:52:49;;;;;;;2.57;1.27;;;;;;;6.49;47.78;96498.25;4360772;32;20417;-53
2022/01/29 10:55:20;;;;;;;5.30;2.03;;;;;;;8.18;77.33;96479.97;4380893;32;20280;-53
2022/01/29 10:57:48;;;;;;;5.97;1.80;;;;;;;11.26;71.94;96476.28;4361146;32;20283;-54
2022/01/29 11:00:22;;;;;;;2.17;0.90;;;;;;;12.68;64.38;96462.34;4359058;32;20318;-53
2022/01/29 11:02:51;;;;;;;2.70;0.60;;;;;;;13.92;47.91;96466.22;4377119;32;20196;-62
2022/01/29 11:05:18;;;;;;;0.97;0.30;;;;;;;14.31;40.79;96466.78;4357872;32;20196;-63
2022/01/29 11:07:52;;;;;;;0.50;0.37;;;;;;;11.59;36.83;96466.91;4361235;32;20185;-62
2022/01/29 11:10:43;;;;;;;0.50;0.37;;;;;;;9.57;39.72;96481.56;4360059;32;20196;-62
2022/01/29 11:13:08;;;;;;;1.50;0.50;;;;;;;9.04;40.97;96466.72;4372597;32;20188;-62
2022/01/29 11:15:35;;;;;;;1.33;0.40;;;;;;;8.00;41.95;96471.59;4362520;32;20309;-62
2022/01/29 11:21:25;;;;;;;2.73;0.70;;;;;;;7.50;46.06;96441.69;4378775;32;20299;-62
2022/01/29 11:23:53;;;;;;;4.17;0.57;;;;;;;7.29;45.09;96444.31;4378182;32;20281;-62
2022/01/29 11:26:18;;;;;;;1.33;0.40;;;;;;;7.04;44.77;96432.41;4339871;32;20276;-63
2022/01/29 11:28:45;;;;;;;0.63;0.50;;;;;;;7.25;45.34;96433.47;4346636;32;20280;-63
2022/01/29 11:31:20;;;;;;;0.40;0.40;;;;;;;7.18;44.65;96432.84;4372845;32;20193;-63
2022/01/29 11:34:04;;;;;;;0.47;0.40;;;;;;;7.06;44.50;96432.16;4362505;32;20280;-63
2022/01/29 11:36:49;;;;;;;0.30;0.30;;;;;;;6.95;45.03;96427.78;4372241;32;20323;-62
2022/01/29 11:39:22;;;;;;;2.40;0.93;;;;;;;7.00;45.54;96441.03;4396194;32;20272;-64
2022/01/29 11:42:30;;;;;;;0.57;0.57;;;;;;;7.08;45.04;96437.97;4368082;32;20260;-62
2022/01/29 11:44:57;;;;;;;1.10;0.40;;;;;;;7.14;45.48;96437.81;4335637;32;20276;-62
2022/01/29 11:47:25;;;;;;;0.40;0.40;;;;;;;7.28;44.81;96432.97;4349576;32;20369;-63
2022/01/29 11:50:16;;;;;;;0.57;0.57;;;;;;;7.33;44.12;96424.31;4376963;32;20352;-63
2022/01/29 11:53:03;;;;;;;0.40;0.40;;;;;;;7.24;44.10;96443.25;4347424;32;20294;-63
2022/01/29 11:55:51;;;;;;;0.37;0.30;;;;;;;7.52;44.35;96420.31;4358199;32;20273;-63
2022/01/29 11:58:29;;;;;;;0.83;0.50;;;;;;;7.68;44.38;96422.12;4307482;32;20333;-63
2022/01/29 12:01:06;;;;;;;0.60;0.40;;;;;;;7.61;43.58;96421.50;4360518;32;20307;-63
2022/01/29 12:03:45;;;;;;;0.60;0.40;;;;;;;7.70;42.63;96425.28;4361027;32;20319;-62
2022/01/29 12:06:21;;;;;;;1.03;0.40;;;;;;;7.69;42.75;96417.63;4308254;32;20294;-63
2022/01/29 12:09:21;;;;;;;0.93;0.50;;;;;;;7.72;42.30;96425.03;4324291;32;20325;-63
2022/01/29 12:12:26;;;;;;;3.20;0.70;;;;;;;7.63;42.30;96429.19;4352981;32;20325;-63
2022/01/29 12:15:12;;;;;;;2.87;0.83;;;;;;;7.70;43.49;96414.72;4342973;32;20281;-63
2022/01/29 12:17:58;;;;;;;1.27;0.43;;;;;;;7.73;42.66;96408.94;4367798;32;20284;-63